sensor_id;sensor_type;location;lat;lon;timestamp;temperature;humidity
62589;DHT22;58504;48.770;9.148;2022-07-06T00:02:02;24.60;51.80
62589;DHT22;58504;48.770;9.148;2022-07-06T00:04:29;24.70;51.80
62589;DHT22;58504;48.770;9.148;2022-07-06T00:06:56;24.60;51.70
62589;DHT22;58504;48.770;9.148;2022-07-06T00:09:22;24.60;51.80
62589;DHT22;58504;48.770;9.148;2022-07-06T00:11:49;24.60;51.80
62589;DHT22;58504;48.770;9.148;2022-07-06T00:14:16;24.60;51.80
62589;DHT22;58504;48.770;9.148;2022-07-06T00:16:43;24.60;51.70
62589;DHT22;58504;48.770;9.148;2022-07-06T00:19:11;24.60;51.80
62589;DHT22;58504;48.770;9.148;2022-07-06T00:21:38;24.60;51.80
62589;DHT22;58504;48.770;9.148;2022-07-06T00:24:05;24.60;51.80
62589;DHT22;58504;48.770;9.148;2022-07-06T00:26:32;24.60;51.80
62589;DHT22;58504;48.770;9.148;2022-07-06T00:28:58;24.60;51.80
62589;DHT22;58504;48.770;9.148;2022-07-06T00:31:25;24.60;51.80
62589;DHT22;58504;48.770;9.148;2022-07-06T00:33:52;24.60;51.70
62589;DHT22;58504;48.770;9.148;2022-07-06T00:36:20;24.60;52.20
62589;DHT22;58504;48.770;9.148;2022-07-06T00:38:47;24.60;51.70
62589;DHT22;58504;48.770;9.148;2022-07-06T00:41:14;24.60;51.70
62589;DHT22;58504;48.770;9.148;2022-07-06T00:43:51;24.60;51.80
62589;DHT22;58504;48.770;9.148;2022-07-06T00:46:18;24.60;51.80
62589;DHT22;58504;48.770;9.148;2022-07-06T00:48:45;24.60;51.80
62589;DHT22;58504;48.770;9.148;2022-07-06T00:51:12;24.60;51.90
62589;DHT22;58504;48.770;9.148;2022-07-06T00:53:41;24.60;51.90
62589;DHT22;58504;48.770;9.148;2022-07-06T00:56:09;24.60;51.90
62589;DHT22;58504;48.770;9.148;2022-07-06T00:58:36;24.60;51.80
62589;DHT22;58504;48.770;9.148;2022-07-06T01:01:03;24.60;51.80
62589;DHT22;58504;48.770;9.148;2022-07-06T01:03:30;24.60;51.80
62589;DHT22;58504;48.770;9.148;2022-07-06T01:05:57;24.50;51.80
62589;DHT22;58504;48.770;9.148;2022-07-06T01:08:24;24.50;51.90
62589;DHT22;58504;48.770;9.148;2022-07-06T01:10:52;24.50;51.90
62589;DHT22;58504;48.770;9.148;2022-07-06T01:13:19;24.50;51.90
62589;DHT22;58504;48.770;9.148;2022-07-06T01:15:46;24.50;51.90
62589;DHT22;58504;48.770;9.148;2022-07-06T01:18:13;24.50;52.00
62589;DHT22;58504;48.770;9.148;2022-07-06T01:20:41;24.50;51.90
62589;DHT22;58504;48.770;9.148;2022-07-06T01:23:08;24.50;51.90
62589;DHT22;58504;48.770;9.148;2022-07-06T01:25:35;24.60;52.60
62589;DHT22;58504;48.770;9.148;2022-07-06T01:28:03;24.50;51.90
62589;DHT22;58504;48.770;9.148;2022-07-06T01:30:30;24.50;52.00
62589;DHT22;58504;48.770;9.148;2022-07-06T01:32:57;24.50;52.10
62589;DHT22;58504;48.770;9.148;2022-07-06T01:35:24;24.60;52.00
62589;DHT22;58504;48.770;9.148;2022-07-06T01:37:54;24.50;51.90
62589;DHT22;58504;48.770;9.148;2022-07-06T01:40:21;24.50;51.90
62589;DHT22;58504;48.770;9.148;2022-07-06T01:42:47;24.50;51.90
62589;DHT22;58504;48.770;9.148;2022-07-06T01:45:14;24.50;51.90
62589;DHT22;58504;48.770;9.148;2022-07-06T01:47:41;24.50;52.00
62589;DHT22;58504;48.770;9.148;2022-07-06T01:50:08;24.50;51.90
62589;DHT22;58504;48.770;9.148;2022-07-06T01:52:35;24.50;52.00
62589;DHT22;58504;48.770;9.148;2022-07-06T01:55:04;24.50;51.90
62589;DHT22;58504;48.770;9.148;2022-07-06T01:57:31;24.50;52.00
62589;DHT22;58504;48.770;9.148;2022-07-06T01:59:58;24.50;52.00
62589;DHT22;58504;48.770;9.148;2022-07-06T02:02:25;24.50;52.00
62589;DHT22;58504;48.770;9.148;2022-07-06T02:04:52;24.50;51.80
62589;DHT22;58504;48.770;9.148;2022-07-06T02:07:19;24.50;51.80
62589;DHT22;58504;48.770;9.148;2022-07-06T02:09:45;24.50;52.00
62589;DHT22;58504;48.770;9.148;2022-07-06T02:12:14;24.50;52.00
62589;DHT22;58504;48.770;9.148;2022-07-06T02:14:40;24.50;52.00
62589;DHT22;58504;48.770;9.148;2022-07-06T02:17:07;24.50;52.20
62589;DHT22;58504;48.770;9.148;2022-07-06T02:19:34;24.50;52.00
62589;DHT22;58504;48.770;9.148;2022-07-06T02:22:01;24.50;51.90
62589;DHT22;58504;48.770;9.148;2022-07-06T02:24:28;24.40;51.90
62589;DHT22;58504;48.770;9.148;2022-07-06T02:26:54;24.50;52.00
62589;DHT22;58504;48.770;9.148;2022-07-06T02:29:23;24.40;52.00
62589;DHT22;58504;48.770;9.148;2022-07-06T02:31:51;24.40;51.90
62589;DHT22;58504;48.770;9.148;2022-07-06T02:34:18;24.40;51.90
62589;DHT22;58504;48.770;9.148;2022-07-06T02:36:45;24.40;52.40
62589;DHT22;58504;48.770;9.148;2022-07-06T02:39:11;24.40;52.00
62589;DHT22;58504;48.770;9.148;2022-07-06T02:41:38;24.40;52.00
62589;DHT22;58504;48.770;9.148;2022-07-06T02:44:05;24.40;52.10
62589;DHT22;58504;48.770;9.148;2022-07-06T02:46:33;24.40;52.20
62589;DHT22;58504;48.770;9.148;2022-07-06T02:49:00;24.40;52.10
62589;DHT22;58504;48.770;9.148;2022-07-06T02:51:27;24.40;52.00
62589;DHT22;58504;48.770;9.148;2022-07-06T02:53:53;24.40;52.50
62589;DHT22;58504;48.770;9.148;2022-07-06T02:56:20;24.40;51.90
62589;DHT22;58504;48.770;9.148;2022-07-06T02:58:47;24.40;51.90
62589;DHT22;58504;48.770;9.148;2022-07-06T03:01:14;24.40;52.00
62589;DHT22;58504;48.770;9.148;2022-07-06T03:03:42;24.30;51.80
62589;DHT22;58504;48.770;9.148;2022-07-06T03:06:09;24.40;51.90
62589;DHT22;58504;48.770;9.148;2022-07-06T03:08:35;24.40;52.00
62589;DHT22;58504;48.770;9.148;2022-07-06T03:11:03;24.30;51.70
62589;DHT22;58504;48.770;9.148;2022-07-06T03:13:29;24.30;51.60
62589;DHT22;58504;48.770;9.148;2022-07-06T03:15:56;24.40;52.20
62589;DHT22;58504;48.770;9.148;2022-07-06T03:18:23;24.30;51.90
62589;DHT22;58504;48.770;9.148;2022-07-06T03:20:51;24.30;52.10
62589;DHT22;58504;48.770;9.148;2022-07-06T03:23:18;24.40;52.30
62589;DHT22;58504;48.770;9.148;2022-07-06T03:25:46;24.30;52.20
62589;DHT22;58504;48.770;9.148;2022-07-06T03:28:13;24.30;52.30
62589;DHT22;58504;48.770;9.148;2022-07-06T03:30:39;24.30;52.40
62589;DHT22;58504;48.770;9.148;2022-07-06T03:33:08;24.30;52.40
62589;DHT22;58504;48.770;9.148;2022-07-06T03:35:35;24.30;52.30
62589;DHT22;58504;48.770;9.148;2022-07-06T03:38:03;24.40;52.50
62589;DHT22;58504;48.770;9.148;2022-07-06T03:40:30;24.40;52.30
62589;DHT22;58504;48.770;9.148;2022-07-06T03:42:57;24.30;52.30
62589;DHT22;58504;48.770;9.148;2022-07-06T03:45:24;24.30;52.30
62589;DHT22;58504;48.770;9.148;2022-07-06T03:47:51;24.30;52.50
62589;DHT22;58504;48.770;9.148;2022-07-06T03:50:17;24.30;52.60
62589;DHT22;58504;48.770;9.148;2022-07-06T03:52:44;24.30;52.70
62589;DHT22;58504;48.770;9.148;2022-07-06T03:55:12;24.30;52.80
62589;DHT22;58504;48.770;9.148;2022-07-06T03:57:39;24.30;52.80
62589;DHT22;58504;48.770;9.148;2022-07-06T04:00:08;24.30;52.80
62589;DHT22;58504;48.770;9.148;2022-07-06T04:02:35;24.30;52.60
62589;DHT22;58504;48.770;9.148;2022-07-06T04:05:02;24.40;52.70
62589;DHT22;58504;48.770;9.148;2022-07-06T04:07:29;24.30;52.60
62589;DHT22;58504;48.770;9.148;2022-07-06T04:09:56;24.30;52.50
62589;DHT22;58504;48.770;9.148;2022-07-06T04:12:24;24.30;52.50
62589;DHT22;58504;48.770;9.148;2022-07-06T04:14:51;24.30;52.70
62589;DHT22;58504;48.770;9.148;2022-07-06T04:17:17;24.30;52.50
62589;DHT22;58504;48.770;9.148;2022-07-06T04:19:58;24.30;52.60
62589;DHT22;58504;48.770;9.148;2022-07-06T04:22:25;24.30;53.20
62589;DHT22;58504;48.770;9.148;2022-07-06T04:24:52;24.30;52.50
62589;DHT22;58504;48.770;9.148;2022-07-06T04:27:19;24.30;52.50
62589;DHT22;58504;48.770;9.148;2022-07-06T04:29:47;24.30;52.60
62589;DHT22;58504;48.770;9.148;2022-07-06T04:32:13;24.30;52.70
62589;DHT22;58504;48.770;9.148;2022-07-06T04:34:40;24.40;52.90
62589;DHT22;58504;48.770;9.148;2022-07-06T04:37:07;24.30;52.80
62589;DHT22;58504;48.770;9.148;2022-07-06T04:39:34;24.30;52.80
62589;DHT22;58504;48.770;9.148;2022-07-06T04:42:01;24.30;52.70
62589;DHT22;58504;48.770;9.148;2022-07-06T04:44:27;24.30;52.70
62589;DHT22;58504;48.770;9.148;2022-07-06T04:46:56;24.40;52.80
62589;DHT22;58504;48.770;9.148;2022-07-06T04:49:22;24.40;52.80
62589;DHT22;58504;48.770;9.148;2022-07-06T04:51:49;24.40;52.70
62589;DHT22;58504;48.770;9.148;2022-07-06T04:54:16;24.40;52.60
62589;DHT22;58504;48.770;9.148;2022-07-06T04:56:43;24.40;52.60
62589;DHT22;58504;48.770;9.148;2022-07-06T04:59:10;24.40;52.60
62589;DHT22;58504;48.770;9.148;2022-07-06T05:01:36;24.40;52.60
62589;DHT22;58504;48.770;9.148;2022-07-06T05:04:05;24.40;52.50
62589;DHT22;58504;48.770;9.148;2022-07-06T05:06:32;24.40;52.60
62589;DHT22;58504;48.770;9.148;2022-07-06T05:08:58;24.40;52.60
62589;DHT22;58504;48.770;9.148;2022-07-06T05:11:26;24.40;52.60
62589;DHT22;58504;48.770;9.148;2022-07-06T05:13:53;24.40;52.60
62589;DHT22;58504;48.770;9.148;2022-07-06T05:16:20;24.50;52.80
62589;DHT22;58504;48.770;9.148;2022-07-06T05:18:46;24.40;52.70
62589;DHT22;58504;48.770;9.148;2022-07-06T05:21:15;24.40;52.60
62589;DHT22;58504;48.770;9.148;2022-07-06T05:23:42;24.50;52.70
62589;DHT22;58504;48.770;9.148;2022-07-06T05:26:08;24.40;52.70
62589;DHT22;58504;48.770;9.148;2022-07-06T05:28:35;24.40;52.70
62589;DHT22;58504;48.770;9.148;2022-07-06T05:31:02;24.50;52.60
62589;DHT22;58504;48.770;9.148;2022-07-06T05:33:29;24.50;52.60
62589;DHT22;58504;48.770;9.148;2022-07-06T05:35:56;24.50;52.60
62589;DHT22;58504;48.770;9.148;2022-07-06T05:38:24;24.50;52.60
62589;DHT22;58504;48.770;9.148;2022-07-06T05:40:51;24.50;52.60
62589;DHT22;58504;48.770;9.148;2022-07-06T05:43:18;24.50;52.70
62589;DHT22;58504;48.770;9.148;2022-07-06T05:45:45;24.50;52.70
62589;DHT22;58504;48.770;9.148;2022-07-06T05:48:11;24.50;52.70
62589;DHT22;58504;48.770;9.148;2022-07-06T05:50:56;24.50;52.70
62589;DHT22;58504;48.770;9.148;2022-07-06T05:53:24;24.50;52.70
62589;DHT22;58504;48.770;9.148;2022-07-06T05:55:51;24.50;52.60
62589;DHT22;58504;48.770;9.148;2022-07-06T05:58:18;24.60;52.80
62589;DHT22;58504;48.770;9.148;2022-07-06T06:00:45;24.60;52.70
62589;DHT22;58504;48.770;9.148;2022-07-06T06:03:11;24.60;52.70
62589;DHT22;58504;48.770;9.148;2022-07-06T06:05:38;24.60;52.70
62589;DHT22;58504;48.770;9.148;2022-07-06T06:08:05;24.70;52.70
62589;DHT22;58504;48.770;9.148;2022-07-06T06:10:34;24.70;52.60
62589;DHT22;58504;48.770;9.148;2022-07-06T06:13:00;24.70;52.60
62589;DHT22;58504;48.770;9.148;2022-07-06T06:15:27;24.70;52.60
62589;DHT22;58504;48.770;9.148;2022-07-06T06:17:54;24.70;52.60
62589;DHT22;58504;48.770;9.148;2022-07-06T06:20:21;24.70;52.50
62589;DHT22;58504;48.770;9.148;2022-07-06T06:22:49;24.80;52.50
62589;DHT22;58504;48.770;9.148;2022-07-06T06:25:17;24.80;52.50
62589;DHT22;58504;48.770;9.148;2022-07-06T06:27:46;24.80;52.40
62589;DHT22;58504;48.770;9.148;2022-07-06T06:30:13;24.90;52.50
62589;DHT22;58504;48.770;9.148;2022-07-06T06:32:40;24.90;52.40
62589;DHT22;58504;48.770;9.148;2022-07-06T06:35:08;24.90;52.30
62589;DHT22;58504;48.770;9.148;2022-07-06T06:37:35;24.90;52.30
62589;DHT22;58504;48.770;9.148;2022-07-06T06:40:02;24.80;52.20
62589;DHT22;58504;48.770;9.148;2022-07-06T06:42:29;24.90;52.40
62589;DHT22;58504;48.770;9.148;2022-07-06T06:44:58;24.90;52.30
62589;DHT22;58504;48.770;9.148;2022-07-06T06:47:24;24.90;52.40
62589;DHT22;58504;48.770;9.148;2022-07-06T06:49:51;24.90;52.40
62589;DHT22;58504;48.770;9.148;2022-07-06T06:52:18;24.90;52.40
62589;DHT22;58504;48.770;9.148;2022-07-06T06:54:45;25.00;52.20
62589;DHT22;58504;48.770;9.148;2022-07-06T06:57:12;25.20;51.70
62589;DHT22;58504;48.770;9.148;2022-07-06T06:59:38;25.50;51.20
62589;DHT22;58504;48.770;9.148;2022-07-06T07:02:07;25.80;50.70
62589;DHT22;58504;48.770;9.148;2022-07-06T07:04:33;26.10;50.10
62589;DHT22;58504;48.770;9.148;2022-07-06T07:07:00;26.30;49.50
62589;DHT22;58504;48.770;9.148;2022-07-06T07:09:27;26.50;49.00
62589;DHT22;58504;48.770;9.148;2022-07-06T07:11:54;26.80;48.50
62589;DHT22;58504;48.770;9.148;2022-07-06T07:14:21;27.00;47.90
62589;DHT22;58504;48.770;9.148;2022-07-06T07:16:48;27.30;47.60
62589;DHT22;58504;48.770;9.148;2022-07-06T07:19:16;27.50;47.10
62589;DHT22;58504;48.770;9.148;2022-07-06T07:21:43;27.70;46.50
62589;DHT22;58504;48.770;9.148;2022-07-06T07:24:10;27.90;46.00
62589;DHT22;58504;48.770;9.148;2022-07-06T07:26:36;28.10;45.60
62589;DHT22;58504;48.770;9.148;2022-07-06T07:29:03;28.30;45.20
62589;DHT22;58504;48.770;9.148;2022-07-06T07:31:30;28.50;44.60
62589;DHT22;58504;48.770;9.148;2022-07-06T07:33:57;28.70;44.20
62589;DHT22;58504;48.770;9.148;2022-07-06T07:36:25;29.00;43.80
62589;DHT22;58504;48.770;9.148;2022-07-06T07:38:52;29.10;43.40
62589;DHT22;58504;48.770;9.148;2022-07-06T07:41:19;29.30;43.00
62589;DHT22;58504;48.770;9.148;2022-07-06T07:43:46;29.50;42.60
62589;DHT22;58504;48.770;9.148;2022-07-06T07:46:13;29.60;42.30
62589;DHT22;58504;48.770;9.148;2022-07-06T07:48:40;29.80;42.00
62589;DHT22;58504;48.770;9.148;2022-07-06T07:51:07;30.00;41.70
62589;DHT22;58504;48.770;9.148;2022-07-06T07:53:35;30.00;41.40
62589;DHT22;58504;48.770;9.148;2022-07-06T07:56:02;30.20;41.10
62589;DHT22;58504;48.770;9.148;2022-07-06T07:58:29;30.30;41.00
62589;DHT22;58504;48.770;9.148;2022-07-06T08:00:55;30.40;40.70
62589;DHT22;58504;48.770;9.148;2022-07-06T08:03:22;30.50;40.60
62589;DHT22;58504;48.770;9.148;2022-07-06T08:05:49;30.50;40.40
62589;DHT22;58504;48.770;9.148;2022-07-06T08:08:16;30.50;40.40
62589;DHT22;58504;48.770;9.148;2022-07-06T08:10:44;30.50;40.10
62589;DHT22;58504;48.770;9.148;2022-07-06T08:13:11;30.50;40.00
62589;DHT22;58504;48.770;9.148;2022-07-06T08:15:40;30.60;40.10
62589;DHT22;58504;48.770;9.148;2022-07-06T08:18:07;30.70;40.00
62589;DHT22;58504;48.770;9.148;2022-07-06T08:20:35;30.80;39.80
62589;DHT22;58504;48.770;9.148;2022-07-06T08:23:02;30.90;39.70
62589;DHT22;58504;48.770;9.148;2022-07-06T08:25:29;30.90;39.40
62589;DHT22;58504;48.770;9.148;2022-07-06T08:27:57;31.00;39.40
62589;DHT22;58504;48.770;9.148;2022-07-06T08:30:24;31.30;39.00
62589;DHT22;58504;48.770;9.148;2022-07-06T08:32:51;31.60;38.50
62589;DHT22;58504;48.770;9.148;2022-07-06T08:35:18;31.90;37.90
62589;DHT22;58504;48.770;9.148;2022-07-06T08:37:45;32.10;37.40
62589;DHT22;58504;48.770;9.148;2022-07-06T08:40:12;32.30;37.20
62589;DHT22;58504;48.770;9.148;2022-07-06T08:42:39;32.20;37.20
62589;DHT22;58504;48.770;9.148;2022-07-06T08:45:08;32.10;37.00
62589;DHT22;58504;48.770;9.148;2022-07-06T08:47:36;32.10;37.10
62589;DHT22;58504;48.770;9.148;2022-07-06T08:50:04;32.00;37.10
62589;DHT22;58504;48.770;9.148;2022-07-06T08:52:31;31.90;37.50
62589;DHT22;58504;48.770;9.148;2022-07-06T08:54:58;31.60;37.80
62589;DHT22;58504;48.770;9.148;2022-07-06T08:57:26;31.40;38.20
62589;DHT22;58504;48.770;9.148;2022-07-06T08:59:53;31.30;38.70
62589;DHT22;58504;48.770;9.148;2022-07-06T09:02:24;31.00;39.20
62589;DHT22;58504;48.770;9.148;2022-07-06T09:04:54;30.70;39.70
62589;DHT22;58504;48.770;9.148;2022-07-06T09:07:22;30.30;40.40
62589;DHT22;58504;48.770;9.148;2022-07-06T09:09:51;30.00;41.00
62589;DHT22;58504;48.770;9.148;2022-07-06T09:12:18;29.70;41.70
62589;DHT22;58504;48.770;9.148;2022-07-06T09:14:45;29.50;42.10
62589;DHT22;58504;48.770;9.148;2022-07-06T09:17:12;29.20;42.80
62589;DHT22;58504;48.770;9.148;2022-07-06T09:19:40;28.90;43.40
62589;DHT22;58504;48.770;9.148;2022-07-06T09:22:07;28.70;43.90
62589;DHT22;58504;48.770;9.148;2022-07-06T09:24:41;28.40;44.50
62589;DHT22;58504;48.770;9.148;2022-07-06T09:27:15;28.20;45.10
62589;DHT22;58504;48.770;9.148;2022-07-06T09:29:42;27.90;45.60
62589;DHT22;58504;48.770;9.148;2022-07-06T09:32:09;27.80;45.90
62589;DHT22;58504;48.770;9.148;2022-07-06T09:34:45;27.60;46.20
62589;DHT22;58504;48.770;9.148;2022-07-06T09:37:13;27.50;46.70
62589;DHT22;58504;48.770;9.148;2022-07-06T09:39:40;27.40;47.00
62589;DHT22;58504;48.770;9.148;2022-07-06T09:42:07;27.30;47.30
62589;DHT22;58504;48.770;9.148;2022-07-06T09:44:36;27.10;47.50
62589;DHT22;58504;48.770;9.148;2022-07-06T09:47:05;27.00;47.80
62589;DHT22;58504;48.770;9.148;2022-07-06T09:49:33;26.90;48.00
62589;DHT22;58504;48.770;9.148;2022-07-06T09:52:03;26.90;48.10
62589;DHT22;58504;48.770;9.148;2022-07-06T09:54:30;26.80;48.30
62589;DHT22;58504;48.770;9.148;2022-07-06T09:56:57;26.70;48.50
62589;DHT22;58504;48.770;9.148;2022-07-06T09:59:25;26.70;48.70
62589;DHT22;58504;48.770;9.148;2022-07-06T10:01:54;26.60;48.90
62589;DHT22;58504;48.770;9.148;2022-07-06T10:04:23;26.60;49.00
62589;DHT22;58504;48.770;9.148;2022-07-06T10:06:50;26.50;49.20
62589;DHT22;58504;48.770;9.148;2022-07-06T10:09:20;26.50;49.40
62589;DHT22;58504;48.770;9.148;2022-07-06T10:11:49;26.40;49.40
62589;DHT22;58504;48.770;9.148;2022-07-06T10:14:18;26.40;49.60
62589;DHT22;58504;48.770;9.148;2022-07-06T10:16:46;26.30;49.80
62589;DHT22;58504;48.770;9.148;2022-07-06T10:19:14;26.20;49.90
62589;DHT22;58504;48.770;9.148;2022-07-06T10:21:42;26.10;50.10
62589;DHT22;58504;48.770;9.148;2022-07-06T10:24:09;26.10;50.20
62589;DHT22;58504;48.770;9.148;2022-07-06T10:26:38;26.10;50.30
62589;DHT22;58504;48.770;9.148;2022-07-06T10:29:06;26.00;50.40
62589;DHT22;58504;48.770;9.148;2022-07-06T10:31:35;26.00;50.50
62589;DHT22;58504;48.770;9.148;2022-07-06T10:34:05;26.00;50.80
62589;DHT22;58504;48.770;9.148;2022-07-06T10:36:37;25.90;50.80
62589;DHT22;58504;48.770;9.148;2022-07-06T10:39:04;25.90;50.70
62589;DHT22;58504;48.770;9.148;2022-07-06T10:41:53;25.90;50.90
62589;DHT22;58504;48.770;9.148;2022-07-06T10:44:21;25.90;51.00
62589;DHT22;58504;48.770;9.148;2022-07-06T10:46:53;25.90;51.10
62589;DHT22;58504;48.770;9.148;2022-07-06T10:49:20;25.90;51.10
62589;DHT22;58504;48.770;9.148;2022-07-06T10:51:48;26.00;51.20
62589;DHT22;58504;48.770;9.148;2022-07-06T10:54:16;26.00;51.20
62589;DHT22;58504;48.770;9.148;2022-07-06T10:56:45;26.00;51.30
62589;DHT22;58504;48.770;9.148;2022-07-06T10:59:14;26.00;51.30
62589;DHT22;58504;48.770;9.148;2022-07-06T11:02:11;26.00;51.30
62589;DHT22;58504;48.770;9.148;2022-07-06T11:04:38;26.00;51.60
62589;DHT22;58504;48.770;9.148;2022-07-06T11:07:08;26.10;51.60
62589;DHT22;58504;48.770;9.148;2022-07-06T11:09:36;26.10;51.70
62589;DHT22;58504;48.770;9.148;2022-07-06T11:12:12;26.10;51.70
62589;DHT22;58504;48.770;9.148;2022-07-06T11:14:42;26.10;51.60
62589;DHT22;58504;48.770;9.148;2022-07-06T11:17:10;26.10;51.70
62589;DHT22;58504;48.770;9.148;2022-07-06T11:19:37;26.10;51.80
62589;DHT22;58504;48.770;9.148;2022-07-06T11:22:08;26.10;51.90
62589;DHT22;58504;48.770;9.148;2022-07-06T11:24:37;26.10;51.90
62589;DHT22;58504;48.770;9.148;2022-07-06T11:27:05;26.10;52.10
62589;DHT22;58504;48.770;9.148;2022-07-06T11:29:34;26.10;52.00
62589;DHT22;58504;48.770;9.148;2022-07-06T11:32:04;26.20;52.00
62589;DHT22;58504;48.770;9.148;2022-07-06T11:34:32;26.10;51.90
62589;DHT22;58504;48.770;9.148;2022-07-06T11:37:01;26.10;52.00
62589;DHT22;58504;48.770;9.148;2022-07-06T11:39:28;26.10;51.90
62589;DHT22;58504;48.770;9.148;2022-07-06T11:41:56;26.10;51.90
62589;DHT22;58504;48.770;9.148;2022-07-06T11:44:23;26.10;52.00
62589;DHT22;58504;48.770;9.148;2022-07-06T11:46:51;26.10;52.00
62589;DHT22;58504;48.770;9.148;2022-07-06T11:49:19;26.20;52.00
62589;DHT22;58504;48.770;9.148;2022-07-06T11:51:46;26.10;52.00
62589;DHT22;58504;48.770;9.148;2022-07-06T11:54:14;26.10;52.00
62589;DHT22;58504;48.770;9.148;2022-07-06T11:56:46;26.10;52.00
62589;DHT22;58504;48.770;9.148;2022-07-06T11:59:14;26.10;52.20
62589;DHT22;58504;48.770;9.148;2022-07-06T12:01:42;26.10;52.20
62589;DHT22;58504;48.770;9.148;2022-07-06T12:04:10;26.10;52.20
62589;DHT22;58504;48.770;9.148;2022-07-06T12:06:38;26.10;52.10
62589;DHT22;58504;48.770;9.148;2022-07-06T12:09:05;26.00;52.10
62589;DHT22;58504;48.770;9.148;2022-07-06T12:11:33;26.00;52.10
62589;DHT22;58504;48.770;9.148;2022-07-06T12:14:02;26.10;52.10
62589;DHT22;58504;48.770;9.148;2022-07-06T12:16:31;26.00;52.70
62589;DHT22;58504;48.770;9.148;2022-07-06T12:19:00;26.00;52.10
62589;DHT22;58504;48.770;9.148;2022-07-06T12:21:27;26.10;52.10
62589;DHT22;58504;48.770;9.148;2022-07-06T12:23:56;26.10;52.10
62589;DHT22;58504;48.770;9.148;2022-07-06T12:26:24;26.10;52.10
62589;DHT22;58504;48.770;9.148;2022-07-06T12:28:59;26.10;52.00
62589;DHT22;58504;48.770;9.148;2022-07-06T12:31:34;26.10;52.00
62589;DHT22;58504;48.770;9.148;2022-07-06T12:34:01;26.10;52.10
62589;DHT22;58504;48.770;9.148;2022-07-06T12:36:28;26.10;52.70
62589;DHT22;58504;48.770;9.148;2022-07-06T12:38:57;26.10;52.00
62589;DHT22;58504;48.770;9.148;2022-07-06T12:41:29;26.10;52.00
62589;DHT22;58504;48.770;9.148;2022-07-06T12:44:07;26.10;52.10
62589;DHT22;58504;48.770;9.148;2022-07-06T12:46:36;26.10;52.10
62589;DHT22;58504;48.770;9.148;2022-07-06T12:49:15;26.10;52.10
62589;DHT22;58504;48.770;9.148;2022-07-06T12:51:59;26.10;52.20
62589;DHT22;58504;48.770;9.148;2022-07-06T12:54:30;26.10;52.20
62589;DHT22;58504;48.770;9.148;2022-07-06T12:57:05;26.00;52.20
62589;DHT22;58504;48.770;9.148;2022-07-06T12:59:35;26.00;52.30
62589;DHT22;58504;48.770;9.148;2022-07-06T13:02:02;26.00;52.30
62589;DHT22;58504;48.770;9.148;2022-07-06T13:04:30;26.00;52.50
62589;DHT22;58504;48.770;9.148;2022-07-06T13:06:58;25.90;52.40
62589;DHT22;58504;48.770;9.148;2022-07-06T13:09:25;26.00;52.60
62589;DHT22;58504;48.770;9.148;2022-07-06T13:11:53;25.90;52.60
62589;DHT22;58504;48.770;9.148;2022-07-06T13:14:21;25.80;52.60
62589;DHT22;58504;48.770;9.148;2022-07-06T13:16:48;25.80;52.60
62589;DHT22;58504;48.770;9.148;2022-07-06T13:19:15;25.80;52.60
62589;DHT22;58504;48.770;9.148;2022-07-06T13:21:42;25.80;52.80
62589;DHT22;58504;48.770;9.148;2022-07-06T13:24:10;25.80;52.80
62589;DHT22;58504;48.770;9.148;2022-07-06T13:26:37;25.80;52.90
62589;DHT22;58504;48.770;9.148;2022-07-06T13:29:05;25.70;52.90
62589;DHT22;58504;48.770;9.148;2022-07-06T13:31:32;25.70;53.00
62589;DHT22;58504;48.770;9.148;2022-07-06T13:33:59;25.70;53.10
62589;DHT22;58504;48.770;9.148;2022-07-06T13:36:26;25.70;53.00
62589;DHT22;58504;48.770;9.148;2022-07-06T13:38:53;25.70;53.10
62589;DHT22;58504;48.770;9.148;2022-07-06T13:41:19;25.70;53.10
62589;DHT22;58504;48.770;9.148;2022-07-06T13:43:46;25.70;53.30
62589;DHT22;58504;48.770;9.148;2022-07-06T13:46:15;25.80;53.30
62589;DHT22;58504;48.770;9.148;2022-07-06T13:48:43;25.80;53.20
62589;DHT22;58504;48.770;9.148;2022-07-06T13:51:10;25.80;52.90
62589;DHT22;58504;48.770;9.148;2022-07-06T13:53:37;25.90;52.20
62589;DHT22;58504;48.770;9.148;2022-07-06T13:56:04;25.90;51.80
62589;DHT22;58504;48.770;9.148;2022-07-06T13:58:32;25.90;51.40
62589;DHT22;58504;48.770;9.148;2022-07-06T14:00:58;26.00;50.80
62589;DHT22;58504;48.770;9.148;2022-07-06T14:03:27;26.00;50.40
62589;DHT22;58504;48.770;9.148;2022-07-06T14:05:55;26.10;51.40
62589;DHT22;58504;48.770;9.148;2022-07-06T14:08:23;26.10;50.90
62589;DHT22;58504;48.770;9.148;2022-07-06T14:10:49;26.10;50.90
62589;DHT22;58504;48.770;9.148;2022-07-06T14:13:16;26.20;51.20
62589;DHT22;58504;48.770;9.148;2022-07-06T14:15:43;26.20;51.30
62589;DHT22;58504;48.770;9.148;2022-07-06T14:18:10;26.20;51.40
62589;DHT22;58504;48.770;9.148;2022-07-06T14:20:38;26.20;51.30
62589;DHT22;58504;48.770;9.148;2022-07-06T14:23:05;26.30;51.40
62589;DHT22;58504;48.770;9.148;2022-07-06T14:25:32;26.20;51.40
62589;DHT22;58504;48.770;9.148;2022-07-06T14:27:59;26.30;51.40
62589;DHT22;58504;48.770;9.148;2022-07-06T14:30:27;26.30;51.40
62589;DHT22;58504;48.770;9.148;2022-07-06T14:32:54;26.30;51.40
62589;DHT22;58504;48.770;9.148;2022-07-06T14:35:21;26.30;51.50
62589;DHT22;58504;48.770;9.148;2022-07-06T14:37:51;26.30;51.50
62589;DHT22;58504;48.770;9.148;2022-07-06T14:40:18;26.30;51.50
62589;DHT22;58504;48.770;9.148;2022-07-06T14:42:45;26.30;51.50
62589;DHT22;58504;48.770;9.148;2022-07-06T14:45:12;26.30;51.60
62589;DHT22;58504;48.770;9.148;2022-07-06T14:47:38;26.30;51.60
62589;DHT22;58504;48.770;9.148;2022-07-06T14:50:06;26.30;51.70
62589;DHT22;58504;48.770;9.148;2022-07-06T14:52:32;26.20;51.60
62589;DHT22;58504;48.770;9.148;2022-07-06T14:55:01;26.20;51.70
62589;DHT22;58504;48.770;9.148;2022-07-06T14:57:27;26.20;51.80
62589;DHT22;58504;48.770;9.148;2022-07-06T14:59:54;26.20;51.80
62589;DHT22;58504;48.770;9.148;2022-07-06T15:02:21;26.20;51.90
62589;DHT22;58504;48.770;9.148;2022-07-06T15:04:48;26.20;51.90
62589;DHT22;58504;48.770;9.148;2022-07-06T15:07:14;26.20;51.90
62589;DHT22;58504;48.770;9.148;2022-07-06T15:09:42;26.20;51.90
62589;DHT22;58504;48.770;9.148;2022-07-06T15:12:10;26.20;52.00
62589;DHT22;58504;48.770;9.148;2022-07-06T15:14:37;26.20;52.00
62589;DHT22;58504;48.770;9.148;2022-07-06T15:17:04;26.10;52.00
62589;DHT22;58504;48.770;9.148;2022-07-06T15:19:31;26.10;52.00
62589;DHT22;58504;48.770;9.148;2022-07-06T15:21:58;26.10;52.00
62589;DHT22;58504;48.770;9.148;2022-07-06T15:24:25;26.10;52.20
62589;DHT22;58504;48.770;9.148;2022-07-06T15:26:52;26.10;52.30
62589;DHT22;58504;48.770;9.148;2022-07-06T15:29:20;26.00;52.30
62589;DHT22;58504;48.770;9.148;2022-07-06T15:31:47;26.00;52.40
62589;DHT22;58504;48.770;9.148;2022-07-06T15:34:14;25.90;52.40